Time;durP1;ratioP1;P1;durP2;ratioP2;P2;SDS_P1;SDS_P2;PMS_P1;PMS_P2;Temp;Humidity;BMP_temperature;BMP_pressure;BME280_temperature;BME280_humidity;BME280_pressure;Samples;Min_cycle;Max_cycle;Signal;HPM_P1;HPM_P2
2020/12/08 00:00:19;;;;;;;14.18;12.00;;;;;;;-0.73;61.93;94346.61;1739998;82;21063;-54
2020/12/08 00:02:47;;;;;;;21.25;15.08;;;;;;;-0.72;61.90;94345.45;1710427;83;21126;-55
2020/12/08 00:05:17;;;;;;;26.52;17.60;;;;;;;-0.72;61.78;94342.75;1726190;83;21685;-55
2020/12/08 00:07:44;;;;;;;20.52;13.70;;;;;;;-0.73;61.80;94343.91;1740053;82;21199;-54
2020/12/08 00:10:18;;;;;;;17.57;12.07;;;;;;;-0.65;61.85;94340.05;1727551;82;21203;-54
2020/12/08 00:12:43;;;;;;;19.00;14.00;;;;;;;-0.61;61.70;94344.89;1736638;82;22300;-77
2020/12/08 00:15:11;;;;;;;20.23;13.40;;;;;;;-0.61;61.58;94348.94;1736841;82;21140;-54
2020/12/08 00:17:40;;;;;;;17.92;13.20;;;;;;;-0.57;61.42;94348.36;1736985;82;21164;-55
2020/12/08 00:20:09;;;;;;;17.05;13.80;;;;;;;-0.55;61.25;94347.39;1736999;82;21354;-54
2020/12/08 00:22:38;;;;;;;21.52;15.05;;;;;;;-0.55;61.35;94347.39;1737237;82;21167;-53
2020/12/08 00:25:07;;;;;;;29.23;18.60;;;;;;;-0.48;61.04;94344.67;1737377;82;21144;-53
2020/12/08 00:27:39;;;;;;;26.95;16.50;;;;;;;-0.42;60.84;94345.25;1737564;81;21636;-53
2020/12/08 00:30:12;;;;;;;21.57;15.13;;;;;;;-0.35;60.55;94336.38;1737713;82;21497;-53
2020/12/08 00:32:40;;;;;;;21.45;14.03;;;;;;;-0.39;60.34;94341.02;1738191;82;22098;-53
2020/12/08 00:35:10;;;;;;;30.62;17.45;;;;;;;-0.42;60.45;94339.09;1808376;78;21068;-53
2020/12/08 00:37:46;;;;;;;30.68;18.90;;;;;;;-0.38;60.34;94341.96;1808430;79;21476;-54
2020/12/08 00:40:14;;;;;;;24.57;16.77;;;;;;;-0.44;60.25;94344.87;1808406;79;21139;-53
2020/12/08 00:42:42;;;;;;;24.90;17.17;;;;;;;-0.48;60.80;94344.67;1808450;79;21052;-53
2020/12/08 00:45:12;;;;;;;23.47;16.00;;;;;;;-0.43;60.81;94342.95;1808439;79;21433;-54
2020/12/08 00:47:40;;;;;;;23.95;15.10;;;;;;;-0.38;60.67;94343.91;1777490;79;21488;-54
2020/12/08 00:50:09;;;;;;;21.12;13.98;;;;;;;-0.37;60.53;94340.80;1808372;79;21064;-54
2020/12/08 00:52:37;;;;;;;18.57;13.43;;;;;;;-0.41;60.46;94338.69;1808317;79;21163;-53
2020/12/08 00:55:07;;;;;;;24.75;14.28;;;;;;;-0.48;60.63;94336.00;1808424;79;21075;-53
2020/12/08 00:57:36;;;;;;;31.10;20.10;;;;;;;-0.48;60.62;94339.27;1777215;79;22247;-54
2020/12/08 01:00:05;;;;;;;24.85;16.82;;;;;;;-0.54;60.57;94333.51;1808326;79;21111;-53
2020/12/08 01:02:35;;;;;;;20.97;15.10;;;;;;;-0.59;60.76;94335.81;1808481;79;21135;-54
2020/12/08 01:05:02;;;;;;;20.40;13.85;;;;;;;-0.60;60.83;94340.44;1808453;79;21962;-54
2020/12/08 01:07:31;;;;;;;16.73;13.60;;;;;;;-0.58;60.78;94337.36;1808431;79;21064;-53
2020/12/08 01:09:59;;;;;;;19.82;14.25;;;;;;;-0.57;60.66;94334.84;1808335;79;21361;-54
2020/12/08 01:12:28;;;;;;;22.10;14.45;;;;;;;-0.58;60.44;94336.01;1808329;79;21056;-54
2020/12/08 01:14:56;;;;;;;22.42;14.85;;;;;;;-0.65;60.53;94342.18;1808457;79;21103;-54
2020/12/08 01:17:25;;;;;;;24.05;17.27;;;;;;;-0.67;60.61;94340.45;1808454;79;21124;-54
2020/12/08 01:19:53;;;;;;;26.62;16.00;;;;;;;-0.66;60.58;94339.85;1808374;78;21182;-56
2020/12/08 01:22:22;;;;;;;28.23;17.52;;;;;;;-0.77;60.82;94336.39;1808461;79;22248;-56
2020/12/08 01:24:51;;;;;;;30.20;17.87;;;;;;;-0.78;61.03;94338.91;1753248;79;21071;-55
2020/12/08 01:27:19;;;;;;;24.57;16.23;;;;;;;-0.78;60.88;94333.50;1808313;78;21032;-56
2020/12/08 01:29:47;;;;;;;21.10;14.58;;;;;;;-0.73;61.05;94335.81;1808456;79;21149;-57
2020/12/08 01:32:15;;;;;;;18.65;13.62;;;;;;;-0.66;60.95;94337.16;1808246;79;21115;-56
2020/12/08 01:34:45;;;;;;;21.87;15.35;;;;;;;-0.68;61.16;94335.42;1799517;79;21124;-58
2020/12/08 01:37:14;;;;;;;14.55;11.68;;;;;;;-0.67;61.23;94328.86;1797284;79;21147;-57
2020/12/08 01:39:42;;;;;;;15.32;12.07;;;;;;;-0.67;61.09;94321.54;1797323;79;21072;-60
2020/12/08 01:42:10;;;;;;;15.28;12.45;;;;;;;-0.81;61.08;94326.17;1797415;79;21488;-60
2020/12/08 01:44:47;;;;;;;22.82;14.58;;;;;;;-0.96;61.40;94332.72;1797429;79;21057;-57
2020/12/08 01:47:16;;;;;;;18.35;13.35;;;;;;;-1.05;61.79;94332.30;1797372;79;21185;-54
2020/12/08 01:49:45;;;;;;;21.85;14.18;;;;;;;-1.05;62.06;94328.26;1797230;79;21159;-56
2020/12/08 01:52:17;;;;;;;19.00;13.25;;;;;;;-1.03;62.41;94327.30;1797410;79;21603;-56
2020/12/08 01:54:50;;;;;;;18.25;12.15;;;;;;;-0.86;62.25;94326.54;1797379;79;21119;-55
2020/12/08 01:57:18;;;;;;;19.98;13.85;;;;;;;-0.83;62.10;94330.59;1797370;79;21056;-56
2020/12/08 01:59:47;;;;;;;24.25;16.12;;;;;;;-0.85;62.03;94322.68;1797366;79;21381;-56
2020/12/08 02:02:19;;;;;;;32.83;19.50;;;;;;;-0.91;62.00;94330.98;1796929;79;21509;-56
2020/12/08 02:04:47;;;;;;;42.30;22.67;;;;;;;-1.07;62.04;94326.52;1797303;79;21056;-55
2020/12/08 02:07:15;;;;;;;45.95;28.42;;;;;;;-1.18;62.57;94328.45;1797390;79;21108;-55
2020/12/08 02:09:44;;;;;;;36.25;23.07;;;;;;;-1.11;62.74;94325.75;1797273;79;21179;-56
2020/12/08 02:12:12;;;;;;;53.52;27.62;;;;;;;-1.04;62.66;94319.00;1797348;79;21189;-56
2020/12/08 02:14:42;;;;;;;53.85;28.30;;;;;;;-0.99;62.64;94317.30;1797295;79;21077;-56
2020/12/08 02:17:10;;;;;;;60.20;31.07;;;;;;;-0.99;62.74;94320.00;1797336;79;21065;-55
2020/12/08 02:19:38;;;;;;;46.02;22.45;;;;;;;-0.95;62.82;94322.11;1797288;79;21488;-56
2020/12/08 02:22:07;;;;;;;41.13;24.18;;;;;;;-0.89;62.67;94322.70;1797394;79;21802;-56
2020/12/08 02:24:37;;;;;;;35.78;20.70;;;;;;;-0.96;62.70;94316.52;1797292;79;21328;-55
2020/12/08 02:27:07;;;;;;;49.77;26.80;;;;;;;-1.01;62.85;94323.63;1797205;78;21143;-56
2020/12/08 02:29:35;;;;;;;44.83;24.30;;;;;;;-1.06;63.15;94319.97;1797259;79;21108;-55
2020/12/08 02:32:03;;;;;;;41.83;23.00;;;;;;;-1.01;63.02;94316.88;1797280;79;21203;-55
2020/12/08 02:34:31;;;;;;;36.55;21.70;;;;;;;-1.01;62.85;94317.66;1803554;79;21048;-55
2020/12/08 02:36:59;;;;;;;35.30;19.23;;;;;;;-0.99;62.85;94320.00;1808316;78;21646;-55
2020/12/08 02:39:28;;;;;;;25.75;17.95;;;;;;;-0.94;62.83;94315.56;1807124;79;21071;-55
2020/12/08 02:41:58;;;;;;;23.02;16.52;;;;;;;-0.84;62.94;94310.72;1808309;79;21100;-56
2020/12/08 02:44:27;;;;;;;41.28;23.95;;;;;;;-0.69;62.88;94309.58;1808359;79;21112;-56
2020/12/08 02:46:55;;;;;;;270.07;109.48;;;;;;;-0.50;62.55;94309.17;1808345;79;21096;-56
2020/12/08 02:49:24;;;;;;;83.72;45.08;;;;;;;-0.34;61.99;94305.48;1808338;79;22086;-55
2020/12/08 02:51:57;;;;;;;60.45;32.53;;;;;;;-0.36;61.46;94313.22;1808252;79;21068;-56
2020/12/08 02:54:27;;;;;;;42.62;23.70;;;;;;;-0.46;61.51;94311.28;1808354;79;21139;-55
2020/12/08 02:56:55;;;;;;;37.20;21.30;;;;;;;-0.69;61.77;94312.27;1808310;79;21123;-56
2020/12/08 02:59:26;;;;;;;43.23;23.38;;;;;;;-0.86;62.11;94308.98;1807714;79;21125;-55
2020/12/08 03:01:55;;;;;;;40.12;23.18;;;;;;;-1.01;62.56;94310.13;1808294;79;21183;-54
2020/12/08 03:04:24;;;;;;;54.80;30.80;;;;;;;-1.01;62.90;94308.78;1777926;79;21131;-56
2020/12/08 03:06:53;;;;;;;48.33;27.90;;;;;;;-1.00;63.36;94308.41;1808319;78;21154;-56
2020/12/08 03:09:22;;;;;;;96.37;46.75;;;;;;;-0.81;63.20;94311.33;1808296;79;21068;-56
2020/12/08 03:11:50;;;;;;;105.67;53.78;;;;;;;-0.80;62.95;94315.57;1808347;79;21072;-56
2020/12/08 03:14:20;;;;;;;112.42;54.83;;;;;;;-0.86;63.14;94311.12;1808303;79;21362;-56
2020/12/08 03:16:49;;;;;;;81.90;40.83;;;;;;;-0.85;63.22;94311.88;1808270;79;21060;-56
2020/12/08 03:19:17;;;;;;;74.75;42.53;;;;;;;-0.83;63.25;94309.56;1808316;79;21122;-55
2020/12/08 03:21:45;;;;;;;56.10;32.65;;;;;;;-0.80;63.15;94306.87;1808322;79;21135;-55
2020/12/08 03:24:16;;;;;;;51.15;32.23;;;;;;;-0.72;63.00;94310.34;1806696;79;21570;-56
2020/12/08 03:26:44;;;;;;;39.88;24.45;;;;;;;-0.70;63.01;94312.08;1808242;78;21419;-57
2020/12/08 03:29:13;;;;;;;47.38;30.12;;;;;;;-0.69;62.94;94313.63;1808239;79;21096;-56
2020/12/08 03:31:41;;;;;;;39.00;22.93;;;;;;;-0.72;63.05;94318.45;1808310;79;21064;-55
2020/12/08 03:34:09;;;;;;;44.75;26.42;;;;;;;-0.78;63.08;94320.76;1808227;78;21051;-55
2020/12/08 03:36:38;;;;;;;53.52;30.80;;;;;;;-0.85;63.35;94319.98;1808472;79;21068;-55
2020/12/08 03:39:06;;;;;;;58.87;33.60;;;;;;;-0.89;63.57;94318.65;1808486;79;21370;-55
2020/12/08 03:41:36;;;;;;;62.70;34.27;;;;;;;-0.91;63.77;94320.97;1808388;79;21598;-56
2020/12/08 03:44:06;;;;;;;42.48;24.65;;;;;;;-0.92;63.85;94329.44;1808439;79;21116;-56
2020/12/08 03:46:34;;;;;;;41.02;24.70;;;;;;;-0.92;63.80;94324.04;1808442;79;21198;-55
2020/12/08 03:49:02;;;;;;;36.93;22.58;;;;;;;-0.84;63.83;94323.66;1808422;79;21056;-56
2020/12/08 03:51:31;;;;;;;44.23;24.37;;;;;;;-0.76;63.72;94326.54;1808463;79;21371;-55
2020/12/08 03:54:01;;;;;;;51.42;30.72;;;;;;;-0.69;63.58;94325.77;1807640;79;21072;-56
2020/12/08 03:56:31;;;;;;;42.88;23.95;;;;;;;-0.67;63.57;94328.86;1808485;79;21088;-55
2020/12/08 03:59:01;;;;;;;42.43;25.60;;;;;;;-0.65;63.40;94328.67;1808007;79;21036;-56
2020/12/08 04:01:30;;;;;;;40.15;24.47;;;;;;;-0.64;63.17;94324.81;1808548;79;21067;-56
2020/12/08 04:04:00;;;;;;;33.13;20.43;;;;;;;-0.64;63.14;94323.47;1808478;79;21184;-55
2020/12/08 04:06:31;;;;;;;29.48;19.62;;;;;;;-0.59;63.04;94330.42;1808341;79;21072;-56
2020/12/08 04:09:00;;;;;;;24.70;18.62;;;;;;;-0.57;62.83;94332.91;1808703;79;21071;-55
2020/12/08 04:11:32;;;;;;;30.57;20.48;;;;;;;-0.50;62.70;94331.57;1807924;79;21060;-56
2020/12/08 04:14:02;;;;;;;31.95;19.50;;;;;;;-0.50;62.55;94324.81;1808501;78;21060;-55
2020/12/08 04:16:32;;;;;;;28.15;19.23;;;;;;;-0.41;62.53;94333.28;1808449;79;21182;-56
2020/12/08 04:19:00;;;;;;;25.25;16.70;;;;;;;-0.23;62.32;94334.62;1808442;78;21060;-55
2020/12/08 04:21:29;;;;;;;22.82;17.05;;;;;;;-0.02;61.92;94331.88;1808429;78;21048;-56
2020/12/08 04:24:03;;;;;;;27.42;17.50;;;;;;;0.17;61.46;94329.49;1806191;79;21053;-56
2020/12/08 04:26:32;;;;;;;27.82;20.08;;;;;;;0.29;61.17;94329.86;1808420;78;21035;-54
2020/12/08 04:29:02;;;;;;;38.50;24.15;;;;;;;0.41;60.94;94325.95;1808443;79;21195;-55
2020/12/08 04:31:32;;;;;;;40.65;25.05;;;;;;;0.46;60.83;94326.31;1777034;79;21084;-55
2020/12/08 04:34:00;;;;;;;36.08;23.20;;;;;;;0.49;60.81;94320.68;1807796;79;21040;-56
2020/12/08 04:36:28;;;;;;;40.90;24.90;;;;;;;0.52;60.65;94328.01;1797426;79;21512;-56
2020/12/08 04:38:57;;;;;;;39.67;26.68;;;;;;;0.52;60.61;94324.73;1797425;79;21147;-55
2020/12/08 04:41:27;;;;;;;42.75;25.72;;;;;;;0.59;60.41;94327.40;1797354;79;23535;-56
2020/12/08 04:43:55;;;;;;;48.92;27.77;;;;;;;0.63;60.20;94323.33;1797322;79;21135;-55
2020/12/08 04:46:26;;;;;;;55.92;32.38;;;;;;;0.59;60.43;94332.81;1797374;79;21032;-55
2020/12/08 04:48:54;;;;;;;56.40;34.48;;;;;;;0.39;60.66;94331.73;1797336;79;21175;-55
2020/12/08 04:51:23;;;;;;;59.77;37.10;;;;;;;0.24;61.08;94330.24;1797388;79;21060;-57
2020/12/08 04:53:54;;;;;;;62.90;35.43;;;;;;;0.18;61.49;94329.11;1797328;79;21365;-55
2020/12/08 04:56:23;;;;;;;40.28;24.77;;;;;;;0.17;61.50;94337.04;1775723;79;21072;-56
2020/12/08 04:58:51;;;;;;;43.35;27.32;;;;;;;0.17;61.52;94330.28;1797377;79;21053;-56
2020/12/08 05:01:25;;;;;;;49.45;29.42;;;;;;;0.08;61.81;94333.20;1797382;79;21080;-55
2020/12/08 05:03:59;;;;;;;56.58;29.98;;;;;;;0.09;61.84;94335.53;1797422;79;21427;-57
2020/12/08 05:06:29;;;;;;;56.92;33.85;;;;;;;0.01;62.03;94339.39;1797393;79;21189;-55
2020/12/08 05:09:05;;;;;;;51.83;29.32;;;;;;;-0.08;62.24;94330.75;1797197;79;21138;-56
2020/12/08 05:11:37;;;;;;;49.80;31.40;;;;;;;-0.07;62.41;94333.64;1797395;79;21662;-57
2020/12/08 05:14:06;;;;;;;56.80;36.03;;;;;;;-0.13;62.42;94332.47;1797445;79;21583;-55
2020/12/08 05:16:34;;;;;;;43.30;27.20;;;;;;;-0.18;62.55;94329.61;1797394;79;21144;-56
2020/12/08 05:19:10;;;;;;;46.50;29.07;;;;;;;-0.26;62.70;94332.11;1797389;79;21188;-55
2020/12/08 05:21:51;;;;;;;51.02;30.68;;;;;;;-0.25;62.81;94324.79;1797317;79;21152;-57
2020/12/08 05:24:31;;;;;;;55.55;31.48;;;;;;;-0.10;62.77;94319.52;1797484;79;21501;-57
2020/12/08 05:27:02;;;;;;;59.33;35.13;;;;;;;-0.02;62.40;94319.91;1775627;79;21492;-56
2020/12/08 05:29:31;;;;;;;55.65;35.00;;;;;;;-0.04;62.37;94323.39;1797358;79;21072;-56
2020/12/08 05:32:29;;;;;;;54.55;33.35;;;;;;;-0.02;62.42;94318.36;1797338;79;21365;-56
2020/12/08 05:34:55;;;;;;;57.62;34.73;;;;;;;-0.04;62.41;94322.80;1700662;83;21654;-56
2020/12/08 05:37:24;;;;;;;80.50;48.23;;;;;;;-0.12;62.51;94327.25;1792137;79;21149;-56
2020/12/08 05:39:52;;;;;;;104.00;58.38;;;;;;;-0.23;62.83;94327.88;1814097;79;21063;-56
2020/12/08 05:42:20;;;;;;;114.20;63.28;;;;;;;-0.21;63.03;94324.20;1814201;79;21064;-57
2020/12/08 05:44:51;;;;;;;86.12;43.50;;;;;;;-0.14;62.93;94329.58;1814164;79;22240;-56
2020/12/08 05:47:21;;;;;;;77.20;46.53;;;;;;;-0.08;62.91;94330.75;1814017;79;21075;-56
2020/12/08 05:50:00;;;;;;;78.87;45.95;;;;;;;-0.03;62.94;94333.05;1814386;79;21476;-57
2020/12/08 05:52:32;;;;;;;73.62;42.55;;;;;;;0.01;62.81;94328.58;1814075;78;21496;-57
2020/12/08 05:55:11;;;;;;;81.37;41.48;;;;;;;0.05;62.65;94332.64;1813999;79;21147;-56
2020/12/08 05:57:41;;;;;;;73.22;41.98;;;;;;;0.02;62.59;94336.88;1814064;79;21265;-57
2020/12/08 06:00:26;;;;;;;79.97;42.75;;;;;;;-0.02;62.70;94331.88;1813986;79;21083;-58
2020/12/08 06:03:14;;;;;;;71.65;39.20;;;;;;;-0.02;62.83;94341.53;1814027;79;21072;-57
2020/12/08 06:05:45;;;;;;;79.65;42.90;;;;;;;0.05;62.67;94344.20;1814158;79;21072;-55
2020/12/08 06:08:17;;;;;;;96.32;46.73;;;;;;;0.07;62.55;94344.59;1814062;79;21240;-56
2020/12/08 06:11:09;;;;;;;87.12;44.53;;;;;;;0.04;62.68;94348.67;1814007;79;21371;-58
2020/12/08 06:13:39;;;;;;;187.22;63.08;;;;;;;0.08;62.59;94343.42;1813934;78;21551;-57
2020/12/08 06:16:17;;;;;;;89.75;46.88;;;;;;;0.06;62.52;94345.75;1785903;79;21555;-57
2020/12/08 06:18:46;;;;;;;67.32;36.75;;;;;;;0.09;62.46;94347.70;1814003;78;21127;-58
2020/12/08 06:21:27;;;;;;;60.67;32.58;;;;;;;0.10;62.48;94354.64;1814201;79;21583;-58
2020/12/08 06:24:00;;;;;;;57.90;36.85;;;;;;;0.08;62.42;94354.83;1814316;79;21556;-58
2020/12/08 06:26:40;;;;;;;56.80;34.00;;;;;;;0.00;62.56;94357.38;1785878;79;21524;-58
2020/12/08 06:29:09;;;;;;;53.83;33.53;;;;;;;-0.03;62.67;94356.78;1814118;79;21504;-58
2020/12/08 06:31:48;;;;;;;56.42;32.93;;;;;;;0.05;62.71;94355.62;1807016;78;21122;-58
2020/12/08 06:37:08;;;;;;;70.17;42.30;;;;;;;0.35;62.19;94355.33;1776889;79;22839;-57
2020/12/08 06:39:36;;;;;;;55.45;33.67;;;;;;;0.32;62.09;94360.18;1744820;81;21186;-57
2020/12/08 06:42:14;;;;;;;54.18;34.15;;;;;;;0.34;61.75;94363.26;1745056;81;21438;-58
2020/12/08 06:44:42;;;;;;;53.80;34.58;;;;;;;0.38;61.56;94368.07;1749381;80;21087;-58
2020/12/08 06:47:10;;;;;;;58.98;31.93;;;;;;;0.43;61.51;94375.77;1749664;82;21064;-59
2020/12/08 06:49:38;;;;;;;46.48;28.05;;;;;;;0.52;61.37;94369.95;1749561;82;21076;-57
2020/12/08 06:52:10;;;;;;;55.50;31.68;;;;;;;0.59;60.95;94369.94;1749657;82;21131;-58
2020/12/08 06:54:38;;;;;;;44.30;27.52;;;;;;;0.68;60.70;94367.56;1749661;82;21469;-57
2020/12/08 06:57:06;;;;;;;40.92;25.43;;;;;;;0.68;60.52;94364.30;1749439;82;21127;-59
2020/12/08 06:59:35;;;;;;;51.15;28.50;;;;;;;0.62;60.48;94374.56;1742041;82;21711;-59
2020/12/08 07:02:03;;;;;;;50.05;28.00;;;;;;;0.56;60.46;94375.55;1719890;82;21162;-57
2020/12/08 07:04:31;;;;;;;53.25;29.72;;;;;;;0.56;60.47;94379.60;1719772;82;21055;-60
2020/12/08 07:07:02;;;;;;;52.10;31.30;;;;;;;0.60;60.39;94383.06;1691401;83;21221;-58
2020/12/08 07:09:36;;;;;;;45.10;27.70;;;;;;;0.66;60.38;94392.34;1736397;82;21499;-58
2020/12/08 07:12:06;;;;;;;59.23;34.83;;;;;;;0.74;60.23;94393.84;1749226;82;21079;-59
2020/12/08 07:14:36;;;;;;;59.27;35.68;;;;;;;0.71;60.22;94391.13;1749570;80;21560;-58
2020/12/08 07:17:05;;;;;;;73.50;37.23;;;;;;;0.70;60.24;94386.89;1743665;82;21175;-60
2020/12/08 07:19:34;;;;;;;61.30;36.85;;;;;;;0.70;60.27;94394.44;1720606;82;21376;-57
2020/12/08 07:22:08;;;;;;;57.78;33.55;;;;;;;0.70;60.09;94393.66;1747272;80;21582;-59
2020/12/08 07:24:43;;;;;;;72.20;37.20;;;;;;;0.71;60.25;94400.04;1749569;82;21694;-59
2020/12/08 07:27:12;;;;;;;76.10;38.85;;;;;;;0.74;60.46;94399.84;1731714;81;21120;-58
2020/12/08 07:29:40;;;;;;;58.58;30.48;;;;;;;0.84;60.38;94397.66;1719588;83;21097;-58
2020/12/08 07:32:10;;;;;;;49.08;29.30;;;;;;;0.88;60.01;94404.61;1719689;83;21436;-64
2020/12/08 07:34:49;;;;;;;65.57;30.37;;;;;;;0.90;59.88;94402.84;1719501;82;21087;-60
2020/12/08 07:37:17;;;;;;;42.30;24.70;;;;;;;0.94;59.79;94400.31;1706441;83;21496;-57
2020/12/08 07:39:45;;;;;;;52.23;27.70;;;;;;;1.01;59.62;94403.58;1706952;82;21148;-57
2020/12/08 07:42:17;;;;;;;60.05;30.02;;;;;;;1.01;59.41;94404.36;1706984;84;21572;-58
2020/12/08 07:44:57;;;;;;;56.50;31.87;;;;;;;1.00;59.27;94412.27;1706280;84;21307;-60
2020/12/08 07:47:25;;;;;;;58.90;28.10;;;;;;;1.03;59.20;94402.59;1696927;83;21147;-58
2020/12/08 07:49:55;;;;;;;61.90;32.65;;;;;;;1.15;58.95;94405.63;1692311;83;21239;-60
2020/12/08 07:52:23;;;;;;;64.00;29.75;;;;;;;1.17;58.80;94394.40;1701999;84;21204;-58
2020/12/08 07:54:51;;;;;;;62.33;32.75;;;;;;;1.20;58.79;94401.73;1706522;84;21501;-61
2020/12/08 07:57:20;;;;;;;65.83;34.65;;;;;;;1.15;58.82;94398.84;1705843;84;21380;-58
2020/12/08 07:59:55;;;;;;;56.80;31.20;;;;;;;1.09;58.96;94399.09;1685689;84;21108;-60
2020/12/08 08:02:59;;;;;;;79.42;37.63;;;;;;;1.07;59.08;94402.77;1715142;83;21221;-59
2020/12/08 08:05:32;;;;;;;59.23;33.45;;;;;;;1.07;59.17;94408.76;1689516;85;21269;-62
2020/12/08 08:08:01;;;;;;;63.42;31.75;;;;;;;0.99;59.22;94407.27;1711710;82;21624;-59
2020/12/08 08:10:29;;;;;;;82.92;46.35;;;;;;;1.01;59.30;94409.78;1682314;85;21444;-58
2020/12/08 08:12:59;;;;;;;72.20;41.98;;;;;;;1.13;59.35;94405.25;1709420;84;21117;-58
2020/12/08 08:15:29;;;;;;;73.15;38.13;;;;;;;1.26;59.24;94404.20;1709438;82;21507;-56
2020/12/08 08:18:00;;;;;;;59.95;33.73;;;;;;;1.26;59.09;94404.20;1674583;84;21221;-58
2020/12/08 08:20:35;;;;;;;56.23;33.33;;;;;;;1.25;59.10;94402.66;1673567;82;21064;-57
2020/12/08 08:23:07;;;;;;;66.40;37.05;;;;;;;1.28;58.89;94401.30;1714617;83;21304;-58
2020/12/08 08:25:36;;;;;;;58.87;33.38;;;;;;;1.27;58.97;94405.17;1674064;84;21124;-60
2020/12/08 08:28:07;;;;;;;61.35;35.43;;;;;;;1.30;58.95;94404.98;1672169;84;21092;-58
2020/12/08 08:30:36;;;;;;;56.37;31.80;;;;;;;1.39;59.01;94403.94;1670202;86;21111;-58
2020/12/08 08:33:04;;;;;;;63.70;35.17;;;;;;;1.47;58.81;94406.80;1670004;85;21525;-58
2020/12/08 08:35:33;;;;;;;61.58;33.45;;;;;;;1.49;58.75;94402.51;1671615;85;21970;-60
2020/12/08 08:38:02;;;;;;;48.10;27.40;;;;;;;1.63;58.45;94402.41;1671753;85;21179;-59
2020/12/08 08:40:31;;;;;;;72.80;36.75;;;;;;;1.66;58.11;94404.33;1671643;85;21139;-57
2020/12/08 08:43:00;;;;;;;74.55;39.42;;;;;;;1.61;58.08;94407.47;1671288;85;21595;-56
2020/12/08 08:45:28;;;;;;;98.80;65.95;;;;;;;1.57;58.29;94405.94;1670127;86;21182;-58
2020/12/08 08:47:59;;;;;;;70.72;36.88;;;;;;;1.60;58.44;94400.51;1670237;85;22399;-57
2020/12/08 08:50:31;;;;;;;67.37;36.30;;;;;;;1.75;58.31;94400.59;1669420;85;21226;-60
2020/12/08 08:53:06;;;;;;;70.62;37.50;;;;;;;1.78;58.07;94405.21;1688019;84;21163;-58
2020/12/08 08:55:35;;;;;;;66.85;33.95;;;;;;;1.88;57.88;94402.41;1673061;85;21120;-59
2020/12/08 08:58:05;;;;;;;64.87;32.93;;;;;;;2.01;57.53;94399.97;1671399;85;21119;-59
2020/12/08 09:00:33;;;;;;;73.87;35.70;;;;;;;2.02;57.22;94400.16;1673157;85;21855;-63
2020/12/08 09:03:05;;;;;;;59.48;30.45;;;;;;;1.98;57.21;94396.11;1672743;83;21182;-60
2020/12/08 09:08:24;;;;;;;54.60;33.05;;;;;;;1.85;57.40;94395.66;1676437;85;21153;-66
2020/12/08 09:11:06;;;;;;;63.13;35.78;;;;;;;1.90;57.59;94386.51;1668646;85;21634;-61
2020/12/08 09:16:31;;;;;;;58.63;32.33;;;;;;;2.33;57.42;94374.07;1846977;77;24270;-58
2020/12/08 09:19:26;;;;;;;50.28;28.42;;;;;;;2.32;56.88;94376.60;1823403;78;21542;-60
2020/12/08 09:22:01;;;;;;;86.10;45.58;;;;;;;2.30;56.60;94372.77;1645631;86;21617;-60
2020/12/08 09:24:33;;;;;;;65.80;35.70;;;;;;;2.20;56.86;94374.99;1625953;87;21089;-60
2020/12/08 09:27:04;;;;;;;62.62;34.38;;;;;;;2.20;56.99;94367.63;1655564;84;21144;-62
2020/12/08 09:29:36;;;;;;;51.15;29.12;;;;;;;2.24;56.88;94363.51;1677753;84;21207;-61
2020/12/08 09:32:07;;;;;;;51.33;30.62;;;;;;;2.27;56.77;94365.41;1695163;83;21022;-58
2020/12/08 09:34:38;;;;;;;44.55;25.95;;;;;;;2.26;56.87;94365.23;1695272;84;21577;-58
2020/12/08 09:37:07;;;;;;;42.27;25.50;;;;;;;2.38;56.67;94368.80;1678781;83;21165;-56
2020/12/08 09:39:40;;;;;;;57.45;31.07;;;;;;;2.31;56.57;94358.03;1667412;84;21570;-62
2020/12/08 09:42:21;;;;;;;50.60;34.48;;;;;;;2.24;56.87;94360.80;1668612;84;21129;-62
2020/12/08 09:44:54;;;;;;;51.60;31.70;;;;;;;2.18;56.94;94355.64;1667468;84;21181;-58
2020/12/08 09:47:27;;;;;;;57.75;34.98;;;;;;;2.23;57.05;94353.83;1693874;84;22734;-61
2020/12/08 09:50:05;;;;;;;72.87;41.18;;;;;;;2.35;57.18;94363.58;1652134;86;21588;-58
2020/12/08 09:52:38;;;;;;;75.67;38.95;;;;;;;2.52;57.12;94357.79;1632911;86;21101;-59
2020/12/08 09:55:08;;;;;;;61.92;34.40;;;;;;;2.72;56.71;94362.79;1651864;86;21177;-58
2020/12/08 09:57:39;;;;;;;55.45;28.83;;;;;;;2.80;56.43;94352.01;1682787;83;21093;-59
2020/12/08 10:00:18;;;;;;;60.98;33.35;;;;;;;2.81;56.07;94351.61;1679047;84;21572;-61
2020/12/08 10:02:47;;;;;;;58.65;33.10;;;;;;;2.70;55.99;94359.71;1679437;83;21164;-60
2020/12/08 10:05:18;;;;;;;64.90;34.15;;;;;;;2.62;56.19;94356.31;1694306;83;21129;-56
2020/12/08 10:08:00;;;;;;;59.10;33.18;;;;;;;2.62;56.37;94354.17;1695194;83;21069;-60
2020/12/08 10:10:34;;;;;;;57.55;33.78;;;;;;;2.69;56.29;94356.21;1651194;84;21139;-62
2020/12/08 10:13:05;;;;;;;60.55;37.45;;;;;;;2.65;56.23;94349.30;1695094;83;21213;-59
2020/12/08 10:15:35;;;;;;;56.88;30.35;;;;;;;2.55;56.54;94348.26;1695012;83;21204;-63
2020/12/08 10:18:03;;;;;;;60.50;32.85;;;;;;;2.49;56.59;94355.89;1695124;83;21216;-57
2020/12/08 10:20:37;;;;;;;72.15;37.20;;;;;;;2.37;56.72;94350.98;1706634;81;21181;-59
2020/12/08 10:23:14;;;;;;;65.17;34.38;;;;;;;2.21;57.01;94355.61;1729529;81;21133;-60
2020/12/08 10:25:46;;;;;;;78.92;40.10;;;;;;;2.12;57.32;94357.26;1752361;80;21298;-59
2020/12/08 10:28:23;;;;;;;73.37;36.15;;;;;;;2.10;57.63;94350.86;1751835;80;21162;-59
2020/12/08 10:30:52;;;;;;;83.80;40.88;;;;;;;2.25;57.50;94345.48;1750179;80;21159;-60
2020/12/08 10:33:22;;;;;;;85.20;40.43;;;;;;;2.29;57.33;94344.09;1721925;83;21062;-59
2020/12/08 10:35:56;;;;;;;84.07;38.63;;;;;;;2.27;57.36;94347.77;1722213;82;21111;-59
2020/12/08 10:38:26;;;;;;;75.72;37.38;;;;;;;2.27;57.62;94339.06;1699573;83;21377;-60
2020/12/08 10:40:59;;;;;;;63.38;35.52;;;;;;;2.40;57.45;94333.88;1724999;82;21138;-62
2020/12/08 10:43:28;;;;;;;47.53;27.27;;;;;;;2.43;57.16;94333.06;1728618;82;21619;-62
2020/12/08 10:46:01;;;;;;;59.23;33.70;;;;;;;2.41;57.14;94339.48;1749333;80;21155;-57
2020/12/08 10:48:33;;;;;;;48.38;25.15;;;;;;;2.43;57.19;94337.13;1751881;80;21062;-58
2020/12/08 10:51:02;;;;;;;64.35;35.23;;;;;;;2.45;57.07;94337.49;1703244;82;21212;-59
2020/12/08 10:53:32;;;;;;;56.68;29.05;;;;;;;2.39;57.16;94341.84;1728613;82;21098;-60
2020/12/08 10:56:01;;;;;;;53.13;29.90;;;;;;;2.41;57.19;94334.06;1751913;81;21080;-61
2020/12/08 10:58:33;;;;;;;70.75;28.55;;;;;;;2.34;57.17;94333.55;1751901;81;21089;-60
2020/12/08 11:01:27;;;;;;;35.98;21.17;;;;;;;2.35;57.28;94343.83;1750060;80;21149;-60
2020/12/08 11:04:02;;;;;;;57.05;29.45;;;;;;;2.41;57.09;94346.27;1722001;83;21253;-58
2020/12/08 11:06:34;;;;;;;47.25;26.62;;;;;;;2.40;57.17;94344.73;1701183;83;21078;-59
2020/12/08 11:09:03;;;;;;;44.40;24.80;;;;;;;2.41;57.33;94342.98;1700216;83;21090;-61
2020/12/08 11:11:38;;;;;;;50.48;26.97;;;;;;;2.41;57.13;94342.98;1723482;82;21157;-60
2020/12/08 11:14:08;;;;;;;50.17;26.60;;;;;;;2.45;57.19;94344.28;1729110;82;21146;-59
2020/12/08 11:16:38;;;;;;;71.97;25.45;;;;;;;2.52;57.22;94346.33;1751853;80;22489;-59
2020/12/08 11:19:14;;;;;;;42.13;21.57;;;;;;;2.63;56.88;94343.48;1720730;82;21172;-57
2020/12/08 11:21:52;;;;;;;40.15;24.50;;;;;;;2.69;56.65;94347.31;1717174;82;21201;-57
2020/12/08 11:24:25;;;;;;;38.58;20.30;;;;;;;2.65;56.63;94347.95;1674448;83;21118;-58
2020/12/08 11:26:59;;;;;;;50.98;27.17;;;;;;;2.69;56.61;94342.64;1690450;83;21121;-61
2020/12/08 11:29:35;;;;;;;53.23;27.07;;;;;;;2.72;56.58;94341.06;1667171;83;21516;-60
2020/12/08 11:32:17;;;;;;;46.85;23.32;;;;;;;2.72;56.61;94342.42;1888499;76;24328;-60
2020/12/08 11:34:51;;;;;;;31.80;20.45;;;;;;;2.64;56.71;94344.45;1775151;80;21187;-60
2020/12/08 11:37:33;;;;;;;45.70;24.25;;;;;;;2.57;56.79;94345.13;1773710;81;20938;-57
2020/12/08 11:40:15;;;;;;;;;;;;;;;2.52;56.92;94336.83;1776809;80;21190;-62
2020/12/08 11:42:44;;;;;;;44.65;24.65;;;;;;;2.58;57.15;94341.23;1763255;80;20199;-59
2020/12/08 11:45:13;;;;;;;38.08;22.40;;;;;;;2.64;56.84;94342.31;1720975;82;21519;-60
2020/12/08 11:47:41;;;;;;;48.80;27.58;;;;;;;2.65;56.72;94339.80;1821031;78;21032;-58